Flight Track Log - Related Links

Times and Time Zones

All times are in EDT time to prevent confusion due to time zone crossing. See the N600TR flight status page for this flight to view local times or setup timezone preferences in your user account.


Time Position Orientation Groundspeed Altitude Reporting Facility
EDT Latitude Longitude Course Direction KTS MPH feet Rate Location/Type
Thu 07:19:03 AM 35.5208 -82.6661 225° Southwest 249 287 5,900  Level Atlanta Center
Thu 07:20:00 AM 35.1872 -82.7795 219° Southwest  Level FlightAware Approximate
Thu 07:20:03 AM 35.4753 -82.7153 221° Southwest 251 289 8,100  Level Atlanta Center
Thu 07:21:00 AM 35.1253 -82.8414 219° Southwest  Level FlightAware Approximate
Thu 07:21:03 AM 35.4092 -82.7569 207° Southwest 257 296 10,400  Level Atlanta Center
Thu 07:22:00 AM 35.0634 -82.9033 219° Southwest  Level FlightAware Approximate
Thu 07:22:03 AM 35.3261 -82.8017 204° Southwest 289 333 11,500  Level Atlanta Center
Thu 07:23:00 AM 35.0015 -82.9652 219° Southwest  Level FlightAware Approximate
Thu 07:23:03 AM 35.2431 -82.8436 202° Southwest 319 367 14,000  Level Atlanta Center
Thu 07:24:00 AM 34.9404 -83.0282 225° Southwest  Level FlightAware Approximate
Thu 07:24:03 AM 35.1578 -82.8906 204° Southwest 330 380 16,400  Level Atlanta Center
Thu 07:25:03 AM 35.0708 -82.9500 209° Southwest 346 398 18,100 1,750 Climbing Atlanta Center
Thu 07:26:03 AM 34.9858 -83.0169 213° Southwest 353 406 19,900 1,750 Climbing Atlanta Center
Thu 07:27:03 AM 34.9050 -83.0992 220° Southwest 376 433 21,600 1,050 Climbing Atlanta Center
Thu 07:28:03 AM 34.8283 -83.1758 219° Southwest 389 448 22,000 200 Climbing Atlanta Center
Thu 07:29:03 AM 34.7353 -83.2678 219° Southwest 399 459 22,000  Level Atlanta Center
Thu 07:30:03 AM 34.6667 -83.3317 217° Southwest 399 459 22,000 -1,050 Level Atlanta Center
Thu 07:31:03 AM 34.5711 -83.4006 211° Southwest 378 435 19,900 -2,150 Descending Atlanta Center
Thu 07:32:03 AM 34.4900 -83.4767 218° Southwest 378 435 17,700 -2,250 Descending Atlanta Center
Thu 07:33:03 AM 34.4153 -83.5503 219° Southwest 361 415 15,400 -1,800 Descending Atlanta Center
Thu 07:34:03 AM 34.3319 -83.6264 217° Southwest 351 404 14,100 -700 Descending Atlanta Center
Thu 07:35:03 AM 34.2550 -83.6944 216° Southwest 346 398 14,000 -50 Descending Atlanta Center
Thu 07:36:03 AM 34.1697 -83.7728 217° Southwest 370 426 14,000  Level Atlanta Center
Thu 07:37:03 AM 34.0800 -83.8533 217° Southwest 397 457 14,000 -150 Level Atlanta Center
Thu 07:38:03 AM 34.0031 -83.9436 224° Southwest 398 458 13,700 -750 Descending Atlanta Center
Thu 07:39:03 AM 33.9278 -84.0339 225° Southwest 387 445 12,500 -850 Descending Atlanta Center
Thu 07:40:03 AM 33.8569 -84.1289 228° Southwest 387 445 12,000 -250 Descending Atlanta Center
Thu 07:41:03 AM 33.8025 -84.2039 229° Southwest 363 418 12,000  Level Atlanta Center
Thu 07:42:03 AM 33.7522 -84.2811 232° Southwest 320 368 12,000 -450 Level Atlanta Center
Thu 07:43:03 AM 33.7292 -84.3611 251° West 269 310 11,100 -1,248 Descending Atlanta Center
Thu 07:44:32 AM 33.7333 -84.4833 272° West 245 282 8,900 -1,369 Descending Atlanta TRACON
Thu 07:45:32 AM 33.7333 -84.5667 270° West 236 272 7,700 -1,350 Descending Atlanta TRACON
Thu 07:46:32 AM 33.7333 -84.6500 270° West 239 275 6,200 -1,250 Descending Atlanta TRACON
Thu 07:47:32 AM 33.7333 -84.7333 270° West 241 277 5,200 -600 Descending Atlanta TRACON
Thu 07:48:32 AM 33.7333 -84.8000 270° West 237 273 5,000 -100 Descending Atlanta TRACON
Thu 07:49:32 AM 33.7333 -84.8833 270° West 238 274 5,000  Level Atlanta TRACON
Thu 07:50:32 AM 33.6833 -84.9000 196° South 200 230 5,000  Level Atlanta TRACON
Thu 07:51:32 AM 33.6500 -84.8333 121° Southeast 194 223 5,000  Level Atlanta TRACON
Thu 07:52:32 AM 33.6500 -84.7833 90° East 198 228 5,000  Level Atlanta TRACON
Thu 07:53:32 AM 33.6500 -84.7167 90° East 195 224 5,000 -350 Level Atlanta TRACON
Thu 07:54:32 AM 33.6500 -84.6500 90° East 195 224 4,300 -789 Descending Atlanta TRACON
Thu 07:55:26 AM 33.6500 -84.6000 90° East 176 203 3,500 -947 Descending Atlanta TRACON
Thu 07:56:26 AM 33.6500 -84.5333 90° East 167 192 2,500 -850 Descending Atlanta TRACON
Thu 07:57:26 AM 33.6500 -84.4833 90° East 124 143 1,800 -650 Descending Atlanta TRACON
Thu 07:58:26 AM 33.6500 -84.4500 90° East 132 152 1,200 -600 Descending Atlanta TRACON

Login

Don't have an account? Register now (free) for customized features, flight alerts, and more!